Skye — WDG4178 — position and weather

sailwx.info

Track history (hours):
 
Tides and Currents Weather Stations Pressure Air Temp Water Temp Dewpoint Dewpoint Depression Visibility Wind Speed Wind Dir Waves Ship Positions

Skye

Owner: Worthington, Ralph, New York, NY. More information available from US FCC via Universal Licensing System and Coast Guard Vessel Documentation Center.

Last reported at 2016-Jul-24 09:32 UTC. Time now 2016-Jul-24 10:46 UTC.
Position N 37°28' E 023°31'.

Length 13 m.

Type: Sailing vessel. MMSI: 367533820.

Date/timePositionNaut miles runAvg speedWind from/ knotsBaromVisibWave heightAir tempDewpointWater temp
2016-Jul-24 09:32N 37°28' E 023°31'5 0.3
2016-Jul-23 15:33N 37°33' E 023°33'6 6.0
2016-Jul-23 14:33N 37°37' E 023°38'6 5.9
2016-Jul-23 13:32N 37°43' E 023°41'3 3.5
2016-Jul-23 12:34N 37°46' E 023°40'6 6.0
2016-Jul-23 11:33N 37°52' E 023°38'4 4.3
2016-Jul-23 10:32N 37°56' E 023°39'0 0.0
2016-Jul-23 09:32N 37°56' E 023°39'0 0.0
2016-Jul-23 08:32N 37°56' E 023°39'0 0.0
2016-Jul-23 07:32N 37°56' E 023°39'0 0.0
2016-Jul-23 06:33N 37°56' E 023°39'0 0.0
2016-Jul-23 04:33N 37°56' E 023°39'0 0.0
2016-Jul-23 03:33N 37°56' E 023°39'0 0.0
2016-Jul-23 02:33N 37°56' E 023°39'0 0.0
2016-Jul-23 01:33N 37°56' E 023°39'0 0.0
2016-Jul-23 00:33N 37°56' E 023°39'0 0.0
2016-Jul-22 23:33N 37°56' E 023°39'0 0.0
2016-Jul-22 22:33N 37°56' E 023°39'0 0.0
2016-Jul-22 21:33N 37°56' E 023°39'0 0.0
2016-Jul-22 20:33N 37°56' E 023°39'0 0.0
2016-Jul-22 19:33N 37°56' E 023°39'0 0.0
2016-Jul-22 18:33N 37°56' E 023°39'0 0.0
2016-Jul-22 17:33N 37°56' E 023°39'0 0.0
2016-Jul-22 14:17N 37°56' E 023°39'0 0.0
2016-Jul-22 13:32N 37°56' E 023°39'0 0.0
2016-Jul-22 12:32N 37°56' E 023°39'0 0.0
2016-Jul-22 11:32N 37°56' E 023°39'2 2.4
2016-Jul-22 10:33N 37°54' E 023°37'7 7.3
2016-Jul-22 09:33N 37°50' E 023°30'6 5.8
2016-Jul-22 08:30N 37°45' E 023°26'0 0.0
2016-Jul-22 07:30N 37°44' E 023°26'1 0.0
2016-Jul-21 15:33N 37°44' E 023°25'3 1.4
2016-Jul-21 13:31N 37°41' E 023°26'4 4.5
2016-Jul-21 12:33N 37°37' E 023°27'3 3.3
2016-Jul-21 11:33N 37°34' E 023°28'2 0.1
2016-Jul-20 09:33N 37°32' E 023°27'2 1.7
2016-Jul-20 08:15N 37°30' E 023°27'0 0.0
2016-Jul-20 04:33N 37°30' E 023°27'0 0.0
2016-Jul-20 03:15N 37°30' E 023°27'0 0.0
2016-Jul-20 02:21N 37°30' E 023°27'0 0.0
2016-Jul-19 20:33N 37°30' E 023°27'0 0.0
2016-Jul-19 09:27N 37°30' E 023°27'0 0.2
2016-Jul-19 08:31N 37°30' E 023°27'2 0.1
2016-Jul-18 15:07N 37°30' E 023°30'2 4.3
2016-Jul-18 14:33N 37°27' E 023°31'13 0.5
2016-Jul-17 15:11N 37°22' E 023°17'  
2016-Jul-15 08:27N 37°17' E 023°06'0 0.0
2016-Jul-15 07:21N 37°17' E 023°06'0 0.0
2016-Jul-15 06:27N 37°17' E 023°06'0 0.0
2016-Jul-15 05:33N 37°17' E 023°06'0 0.0
2016-Jul-15 04:27N 37°17' E 023°06'0 0.0
2016-Jul-15 03:33N 37°17' E 023°06'0 0.0
2016-Jul-15 02:30N 37°17' E 023°06'12 0.8
2016-Jul-14 10:14N 37°20' E 023°21'  
Track history (hours):
 
Tides and Currents Weather Stations Pressure Air Temp Water Temp Dewpoint Dewpoint Depression Visibility Wind Speed Wind Dir Waves Ship Positions

Skye

Owner: Worthington, Ralph, New York, NY. More information available from US FCC via Universal Licensing System and Coast Guard Vessel Documentation Center.

Last reported at 2016-Jul-24 09:32 UTC. Time now 2016-Jul-24 10:46 UTC.
Position N 37°28' E 023°31'.

Length 13 m.

Type: Sailing vessel. MMSI: 367533820.

Date/timePositionNaut miles runAvg speedWind from/ knotsBaromVisibWave heightAir tempDewpointWater temp
2016-Jul-24 09:32N 37°28' E 023°31'5 0.3
2016-Jul-23 15:33N 37°33' E 023°33'6 6.0
2016-Jul-23 14:33N 37°37' E 023°38'6 5.9
2016-Jul-23 13:32N 37°43' E 023°41'3 3.5
2016-Jul-23 12:34N 37°46' E 023°40'6 6.0
2016-Jul-23 11:33N 37°52' E 023°38'4 4.3
2016-Jul-23 10:32N 37°56' E 023°39'0 0.0
2016-Jul-23 09:32N 37°56' E 023°39'0 0.0
2016-Jul-23 08:32N 37°56' E 023°39'0 0.0
2016-Jul-23 07:32N 37°56' E 023°39'0 0.0
2016-Jul-23 06:33N 37°56' E 023°39'0 0.0
2016-Jul-23 04:33N 37°56' E 023°39'0 0.0
2016-Jul-23 03:33N 37°56' E 023°39'0 0.0
2016-Jul-23 02:33N 37°56' E 023°39'0 0.0
2016-Jul-23 01:33N 37°56' E 023°39'0 0.0
2016-Jul-23 00:33N 37°56' E 023°39'0 0.0
2016-Jul-22 23:33N 37°56' E 023°39'0 0.0
2016-Jul-22 22:33N 37°56' E 023°39'0 0.0
2016-Jul-22 21:33N 37°56' E 023°39'0 0.0
2016-Jul-22 20:33N 37°56' E 023°39'0 0.0
2016-Jul-22 19:33N 37°56' E 023°39'0 0.0
2016-Jul-22 18:33N 37°56' E 023°39'0 0.0
2016-Jul-22 17:33N 37°56' E 023°39'0 0.0
2016-Jul-22 14:17N 37°56' E 023°39'0 0.0
2016-Jul-22 13:32N 37°56' E 023°39'0 0.0
2016-Jul-22 12:32N 37°56' E 023°39'0 0.0
2016-Jul-22 11:32N 37°56' E 023°39'2 2.4
2016-Jul-22 10:33N 37°54' E 023°37'7 7.3
2016-Jul-22 09:33N 37°50' E 023°30'6 5.8
2016-Jul-22 08:30N 37°45' E 023°26'0 0.0
2016-Jul-22 07:30N 37°44' E 023°26'1 0.0
2016-Jul-21 15:33N 37°44' E 023°25'3 1.4
2016-Jul-21 13:31N 37°41' E 023°26'4 4.5
2016-Jul-21 12:33N 37°37' E 023°27'3 3.3
2016-Jul-21 11:33N 37°34' E 023°28'2 0.1
2016-Jul-20 09:33N 37°32' E 023°27'2 1.7
2016-Jul-20 08:15N 37°30' E 023°27'0 0.0
2016-Jul-20 04:33N 37°30' E 023°27'0 0.0
2016-Jul-20 03:15N 37°30' E 023°27'0 0.0
2016-Jul-20 02:21N 37°30' E 023°27'0 0.0
2016-Jul-19 20:33N 37°30' E 023°27'0 0.0
2016-Jul-19 09:27N 37°30' E 023°27'0 0.2
2016-Jul-19 08:31N 37°30' E 023°27'2 0.1
2016-Jul-18 15:07N 37°30' E 023°30'2 4.3
2016-Jul-18 14:33N 37°27' E 023°31'13 0.5
2016-Jul-17 15:11N 37°22' E 023°17'  
2016-Jul-15 08:27N 37°17' E 023°06'0 0.0
2016-Jul-15 07:21N 37°17' E 023°06'0 0.0
2016-Jul-15 06:27N 37°17' E 023°06'0 0.0
2016-Jul-15 05:33N 37°17' E 023°06'0 0.0
2016-Jul-15 04:27N 37°17' E 023°06'0 0.0
2016-Jul-15 03:33N 37°17' E 023°06'0 0.0
2016-Jul-15 02:30N 37°17' E 023°06'12 0.8
2016-Jul-14 10:14N 37°20' E 023°21'  

Dump ship's entire track history